Accueil
METAR-TAF:

METAR-TAF

Aéroports :

Pocono Mountains Municipal Airport

Mount Pocono, Pennsylvanie, États-Unis

latitude: 41-08-20N, longitude: 075-23-46W, altitude: 584 m

Observation

Le bulletin a été fait il y a 40 minutes, à 17:08 UTC
Vent 16 kt de ouest avec des rafales jusqu'à 22 kt
Température 21°C
Humidité 78%
Pression 1016 hPa
Visibilité: 16.1 km
Nuages épars à une hauteur de 2100 ft

METAR: KMPO 201708Z AUTO 28016G22KT 10SM SCT021 21/17 A3001 RMK AO2 T02110167

Heure: 13:48 (17:48 UTC)


TAF: absent

Observations et prévisions météorologiques de plus de 4000 aéroports (messages METAR et TAF).

Les stations disponibles sont représentées par des disques jaunes et rouges sur la carte.

Passer la souris dessus pour voir le nom de la station.

Cliquer dessus pour voir les observations et prévisions météorologiques.

Pour changer de carte: cliquez sur les boutons verts avec une croix noire pour zoomer, sur le bouton vert avec un tiret pour effectuer un zoom arrière, ou sur les flèches vertes pour les cartes adjacentes.


METAR-TAF: